createdAt,value
2023-04-02T00:01:42.331Z,4.27
2023-04-02T00:04:21.323Z,4.87
2023-04-02T00:06:53.600Z,5.50
2023-04-02T00:09:32.431Z,4.90
2023-04-02T00:12:14.762Z,5.17
2023-04-02T00:14:47.520Z,4.23
2023-04-02T00:17:15.627Z,6.30
2023-04-02T00:19:48.508Z,4.80
2023-04-02T00:22:22.537Z,6.03
2023-04-02T00:24:53.459Z,7.93
2023-04-02T00:27:21.197Z,6.30
2023-04-02T00:29:49.642Z,6.87
2023-04-02T00:32:24.571Z,9.30
2023-04-02T00:34:53.228Z,8.97
2023-04-02T00:37:24.573Z,4.77
2023-04-02T00:39:56.548Z,7.17
2023-04-02T00:42:24.981Z,5.37
2023-04-02T00:44:55.305Z,6.73
2023-04-02T00:47:26.222Z,6.47
2023-04-02T00:49:59.662Z,5.80
2023-04-02T00:52:31.054Z,6.30
2023-04-02T00:55:04.475Z,5.50
2023-04-02T00:57:33.205Z,5.37
2023-04-02T01:00:11.351Z,6.27
2023-04-02T01:02:40.129Z,6.07
2023-04-02T01:05:22.583Z,8.33
2023-04-02T01:08:03.531Z,6.30
2023-04-02T01:10:45.013Z,7.97
2023-04-02T01:13:23.948Z,5.77
2023-04-02T01:15:57.858Z,5.90
2023-04-02T01:18:36.115Z,5.80
2023-04-02T01:21:37.305Z,5.80
2023-04-02T01:24:07.033Z,4.97
2023-04-02T01:26:46.385Z,5.07
2023-04-02T01:29:16.078Z,3.93
2023-04-02T01:31:46.040Z,4.90
2023-04-02T01:34:15.926Z,4.00
2023-04-02T01:36:52.406Z,4.90
2023-04-02T01:39:34.404Z,3.77
2023-04-02T01:42:09.097Z,3.00
2023-04-02T01:44:41.693Z,3.67
2023-04-02T01:47:13.079Z,2.80
2023-04-02T01:49:41.957Z,3.83
2023-04-02T01:52:12.548Z,3.10
2023-04-02T01:54:41.341Z,3.30
2023-04-02T01:57:09.039Z,4.80
2023-04-02T01:59:37.277Z,3.93
2023-04-02T02:02:06.555Z,2.70
2023-04-02T02:04:34.761Z,3.70
2023-04-02T02:07:03.847Z,2.13
2023-04-02T02:09:34.261Z,3.33
2023-04-02T02:12:03.224Z,2.50
2023-04-02T02:14:32.344Z,2.87
2023-04-02T02:17:02.166Z,3.70
2023-04-02T02:19:33.088Z,2.10
2023-04-02T02:22:10.543Z,3.37
2023-04-02T02:24:38.399Z,2.33
2023-04-02T02:27:33.259Z,3.70
2023-04-02T02:30:06.776Z,2.10
2023-04-02T02:32:39.358Z,2.30
2023-04-02T02:35:15.516Z,2.43
2023-04-02T02:37:45.948Z,3.13
2023-04-02T02:40:19.933Z,2.10
2023-04-02T02:42:51.959Z,2.63
2023-04-02T02:45:23.864Z,3.73
2023-04-02T02:47:54.180Z,2.17
2023-04-02T02:50:24.999Z,2.50
2023-04-02T02:52:54.780Z,1.90
2023-04-02T02:55:26.834Z,2.80
2023-04-02T02:57:58.526Z,2.30
2023-04-02T03:00:26.312Z,2.87
2023-04-02T03:02:56.932Z,2.33
2023-04-02T03:05:27.142Z,2.87
2023-04-02T03:07:56.917Z,2.30
2023-04-02T03:10:32.383Z,3.03
2023-04-02T03:13:07.769Z,2.43
2023-04-02T03:15:41.754Z,2.10
2023-04-02T03:18:18.183Z,3.03
2023-04-02T03:20:51.430Z,2.70
2023-04-02T03:23:23.049Z,3.10
2023-04-02T03:25:56.472Z,3.23
2023-04-02T03:28:26.977Z,4.10
2023-04-02T03:30:59.219Z,3.30
2023-04-02T03:33:31.619Z,3.30
2023-04-02T03:36:03.200Z,2.80
2023-04-02T03:38:35.863Z,3.37
2023-04-02T03:41:10.744Z,3.97
2023-04-02T03:43:42.884Z,3.17
2023-04-02T03:46:26.956Z,5.17
2023-04-02T03:48:58.456Z,5.40
2023-04-02T03:51:30.348Z,4.33
2023-04-02T03:53:57.885Z,3.53
2023-04-02T03:56:30.952Z,3.67
2023-04-02T03:59:10.245Z,4.13
2023-04-02T04:01:43.249Z,4.73
2023-04-02T04:04:16.571Z,5.13
2023-04-02T04:06:45.914Z,7.20
2023-04-02T04:09:22.892Z,9.47
2023-04-02T04:11:54.306Z,7.93
2023-04-02T04:14:28.761Z,8.07
2023-04-02T04:17:03.725Z,5.87
2023-04-02T04:19:39.867Z,7.67
2023-04-02T04:22:14.111Z,6.30
2023-04-02T04:24:45.157Z,6.40
2023-04-02T04:27:21.248Z,7.23
2023-04-02T04:29:55.548Z,5.47
2023-04-02T04:32:31.161Z,5.03
2023-04-02T04:35:05.442Z,6.30
2023-04-02T04:37:36.360Z,4.70
2023-04-02T04:40:11.287Z,4.13
2023-04-02T04:42:42.711Z,5.13
2023-04-02T04:45:23.537Z,4.93
2023-04-02T04:47:55.732Z,6.53
2023-04-02T04:50:31.020Z,5.60
2023-04-02T04:53:04.348Z,7.10
2023-04-02T04:55:37.392Z,4.53
2023-04-02T04:58:13.712Z,9.60
2023-04-02T05:00:50.122Z,9.13
2023-04-02T05:03:24.833Z,8.70
2023-04-02T05:05:53.690Z,7.77
2023-04-02T05:08:26.376Z,7.43
2023-04-02T05:10:59.784Z,9.43
2023-04-02T05:13:33.626Z,5.37
2023-04-02T05:16:10.703Z,13.53
2023-04-02T05:18:43.045Z,7.33
2023-04-02T05:21:19.457Z,8.67
2023-04-02T05:23:49.601Z,8.03
2023-04-02T05:26:20.859Z,8.10
2023-04-02T05:28:57.009Z,7.43
2023-04-02T05:31:27.605Z,8.93
2023-04-02T05:33:56.257Z,3.50
2023-04-02T05:36:27.229Z,7.40
2023-04-02T05:38:56.080Z,6.40
2023-04-02T05:41:27.774Z,7.00
2023-04-02T05:44:03.497Z,5.20
2023-04-02T05:46:36.238Z,5.50
2023-04-02T05:49:06.679Z,3.43
2023-04-02T05:51:41.406Z,3.27
2023-04-02T05:54:22.491Z,4.83
2023-04-02T05:56:55.575Z,5.10
2023-04-02T05:59:25.465Z,3.90
2023-04-02T06:01:58.246Z,5.83
2023-04-02T06:04:30.501Z,6.03
2023-04-02T06:07:03.371Z,5.43
2023-04-02T06:09:39.399Z,4.73
2023-04-02T06:12:22.539Z,4.40
2023-04-02T06:14:50.068Z,7.90
2023-04-02T06:17:19.694Z,4.97
2023-04-02T06:19:47.681Z,5.00
2023-04-02T06:22:24.220Z,4.60
2023-04-02T06:24:57.442Z,3.83
2023-04-02T06:27:26.685Z,4.47
2023-04-02T06:29:59.604Z,3.70
2023-04-02T06:32:27.304Z,2.30
2023-04-02T06:34:55.117Z,3.23
2023-04-02T06:37:27.805Z,4.30
2023-04-02T06:39:56.060Z,4.77
2023-04-02T06:42:28.171Z,3.60
2023-04-02T06:44:55.655Z,3.07
2023-04-02T06:47:31.934Z,5.83
2023-04-02T06:50:05.037Z,3.27
2023-04-02T06:52:37.011Z,3.17
2023-04-02T06:55:26.534Z,3.33
2023-04-02T06:57:53.994Z,4.60
2023-04-02T07:00:34.388Z,4.30
2023-04-02T07:03:05.366Z,6.03
2023-04-02T07:05:32.901Z,5.20
2023-04-02T07:08:01.033Z,7.37
2023-04-02T07:10:28.439Z,4.53
2023-04-02T07:12:55.693Z,4.93
2023-04-02T07:15:24.752Z,4.80
2023-04-02T07:17:52.582Z,5.40
2023-04-02T07:20:26.816Z,4.60
2023-04-02T07:22:54.680Z,4.43
2023-04-02T07:25:23.125Z,3.97
2023-04-02T07:27:50.719Z,4.70
2023-04-02T07:30:18.244Z,6.20
2023-04-02T07:32:46.006Z,4.10
2023-04-02T07:35:13.618Z,4.20
2023-04-02T07:37:41.002Z,3.90
2023-04-02T07:40:17.582Z,3.70
2023-04-02T07:42:46.269Z,4.00
2023-04-02T07:45:13.961Z,3.60
2023-04-02T07:47:41.370Z,2.80
2023-04-02T07:50:09.885Z,2.90
2023-04-02T07:52:41.402Z,2.97
2023-04-02T07:55:10.026Z,2.87
2023-04-02T07:57:41.208Z,2.80
2023-04-02T08:00:11.651Z,1.83
2023-04-02T08:02:39.025Z,1.93
2023-04-02T08:05:07.123Z,2.50
2023-04-02T08:07:34.812Z,2.73
2023-04-02T08:10:03.162Z,3.27
2023-04-02T08:12:30.639Z,2.40
2023-04-02T08:14:58.136Z,2.00
2023-04-02T08:17:30.498Z,1.97
2023-04-02T08:20:00.277Z,1.97
2023-04-02T08:22:27.820Z,2.00
2023-04-02T08:24:56.053Z,2.40
2023-04-02T08:27:23.533Z,1.90
2023-04-02T08:29:50.958Z,2.90
2023-04-02T08:32:18.571Z,2.70
2023-04-02T08:34:46.772Z,1.87
2023-04-02T08:37:14.184Z,2.60
2023-04-02T08:39:41.770Z,1.87
2023-04-02T08:42:22.164Z,2.37
2023-04-02T08:45:05.796Z,1.30
2023-04-02T08:47:41.658Z,2.40
2023-04-02T08:50:21.341Z,1.70
2023-04-02T08:52:48.770Z,2.67
2023-04-02T08:55:25.952Z,1.37
2023-04-02T08:58:01.100Z,2.20
2023-04-02T09:00:37.805Z,2.00
2023-04-02T09:03:10.615Z,2.60
2023-04-02T09:05:42.005Z,3.10
2023-04-02T09:08:17.020Z,2.60
2023-04-02T09:10:51.389Z,2.40
2023-04-02T09:13:23.186Z,4.00
2023-04-02T09:15:53.161Z,2.93
2023-04-02T09:18:20.894Z,2.70
2023-04-02T09:20:49.527Z,3.00
2023-04-02T09:23:19.468Z,2.23
2023-04-02T09:26:01.355Z,3.10
2023-04-02T09:28:31.395Z,4.43
2023-04-02T09:31:11.348Z,2.90
2023-04-02T09:33:43.357Z,3.20
2023-04-02T09:36:26.106Z,2.70
2023-04-02T09:39:00.767Z,4.77
2023-04-02T09:41:29.739Z,3.60
2023-04-02T09:44:17.664Z,2.77
2023-04-02T09:46:52.208Z,2.77
2023-04-02T09:49:22.391Z,2.93
2023-04-02T09:52:08.155Z,2.87
2023-04-02T09:54:41.036Z,3.33
2023-04-02T09:57:23.073Z,3.37
2023-04-02T10:00:25.945Z,4.70
2023-04-02T10:03:04.492Z,3.20
2023-04-02T10:05:40.725Z,2.83
2023-04-02T10:08:18.972Z,4.00
2023-04-02T10:10:49.743Z,3.40
2023-04-02T10:13:22.311Z,2.97
2023-04-02T10:15:55.168Z,3.30
2023-04-02T10:18:30.383Z,4.97
2023-04-02T10:20:59.024Z,4.43
2023-04-02T10:23:29.852Z,2.43
2023-04-02T10:26:09.257Z,3.10
2023-04-02T10:28:50.084Z,2.47
2023-04-02T10:31:24.764Z,2.70
2023-04-02T10:34:00.115Z,3.53
2023-04-02T10:36:43.636Z,2.97
2023-04-02T10:39:14.467Z,2.60
2023-04-02T10:41:50.713Z,2.70
2023-04-02T10:44:40.745Z,1.50
2023-04-02T10:47:21.734Z,2.20
2023-04-02T10:49:56.491Z,2.10
2023-04-02T10:52:29.165Z,2.07
2023-04-02T10:55:01.220Z,2.67
2023-04-02T10:57:36.610Z,1.90
2023-04-02T11:00:15.990Z,2.20
2023-04-02T11:02:50.172Z,1.90
2023-04-02T11:05:28.492Z,1.93
2023-04-02T11:08:03.885Z,2.97
2023-04-02T11:10:36.102Z,3.33
2023-04-02T11:13:11.420Z,1.50
2023-04-02T11:15:39.359Z,1.40
2023-04-02T11:18:06.871Z,1.10
2023-04-02T11:21:05.645Z,1.97
2023-04-02T11:23:54.243Z,2.07
2023-04-02T11:26:40.344Z,1.63
2023-04-02T11:29:27.746Z,1.73
2023-04-02T11:32:35.090Z,2.63
2023-04-02T11:35:37.130Z,2.30
2023-04-02T11:38:43.338Z,1.40
2023-04-02T11:41:10.749Z,2.73
2023-04-02T11:43:59.233Z,3.00
2023-04-02T11:46:42.273Z,2.40
2023-04-02T11:49:35.770Z,1.77
2023-04-02T11:52:11.586Z,2.70
2023-04-02T11:54:40.549Z,2.50
2023-04-02T11:57:21.608Z,2.23
2023-04-02T12:00:06.148Z,2.40
2023-04-02T12:02:41.314Z,1.53
2023-04-02T12:05:18.215Z,2.57
2023-04-02T12:08:04.638Z,1.90
2023-04-02T12:10:34.199Z,1.80
2023-04-02T12:13:01.604Z,2.17
2023-04-02T12:15:43.105Z,2.10
2023-04-02T12:18:16.865Z,1.80
2023-04-02T12:20:49.232Z,2.73
2023-04-02T12:23:23.229Z,2.90
2023-04-02T12:25:58.696Z,2.27
2023-04-02T12:28:28.397Z,1.67
2023-04-02T12:31:06.068Z,1.87
2023-04-02T12:33:36.646Z,1.53
2023-04-02T12:36:06.213Z,1.60
2023-04-02T12:38:36.646Z,1.97
2023-04-02T12:41:06.165Z,2.40
2023-04-02T12:43:35.022Z,2.30
2023-04-02T12:46:05.337Z,1.50
2023-04-02T12:48:34.013Z,1.20
2023-04-02T12:51:02.586Z,1.47
2023-04-02T12:53:33.472Z,1.03
2023-04-02T12:56:01.141Z,1.40
2023-04-02T12:58:31.848Z,1.40
2023-04-02T13:01:18.074Z,1.67
2023-04-02T13:03:58.790Z,1.83
2023-04-02T13:06:26.358Z,1.67
2023-04-02T13:08:54.894Z,1.67
2023-04-02T13:11:22.581Z,1.07
2023-04-02T13:13:50.732Z,0.90
2023-04-02T13:16:33.511Z,1.23
2023-04-02T13:19:26.921Z,1.60
2023-04-02T13:21:55.775Z,1.27
2023-04-02T13:24:25.252Z,1.60
2023-04-02T13:26:56.379Z,5.07
2023-04-02T13:29:26.404Z,4.67
2023-04-02T13:31:56.459Z,4.27
2023-04-02T13:34:24.153Z,2.67
2023-04-02T13:36:51.462Z,2.87
2023-04-02T13:39:19.833Z,2.00
2023-04-02T13:41:50.631Z,5.57
2023-04-02T13:44:24.015Z,6.20
2023-04-02T13:46:52.423Z,1.90
2023-04-02T13:49:20.782Z,1.37
2023-04-02T13:51:49.854Z,2.30
2023-04-02T13:54:24.438Z,1.50
2023-04-02T13:56:51.964Z,5.40
2023-04-02T13:59:20.350Z,3.17
2023-04-02T14:01:49.768Z,1.80
2023-04-02T14:04:21.550Z,1.70
2023-04-02T14:07:10.615Z,1.70
2023-04-02T14:09:49.716Z,1.30
2023-04-02T14:12:25.599Z,1.30
2023-04-02T14:15:16.859Z,4.50
2023-04-02T14:17:59.090Z,2.77
2023-04-02T14:20:41.228Z,2.23
2023-04-02T14:23:34.757Z,2.10
2023-04-02T14:26:11.084Z,1.87
2023-04-02T14:28:48.588Z,1.27
2023-04-02T14:31:24.738Z,1.67
2023-04-02T14:33:57.777Z,1.23
2023-04-02T14:36:34.939Z,1.70
2023-04-02T14:39:09.792Z,1.10
2023-04-02T14:41:46.589Z,1.17
2023-04-02T14:44:15.251Z,1.30
2023-04-02T14:46:43.057Z,1.67
2023-04-02T14:49:23.205Z,1.13
2023-04-02T14:51:57.403Z,5.63
2023-04-02T14:54:31.417Z,1.70
2023-04-02T14:57:04.733Z,0.93
2023-04-02T14:59:35.346Z,1.33
2023-04-02T15:02:08.661Z,0.90
2023-04-02T15:04:40.711Z,1.63
2023-04-02T15:07:18.605Z,1.30
2023-04-02T15:09:50.859Z,2.17
2023-04-02T15:12:22.362Z,1.40
2023-04-02T15:14:55.271Z,1.40
2023-04-02T15:17:24.050Z,1.30
2023-04-02T15:20:11.873Z,1.60
2023-04-02T15:22:46.888Z,2.10
2023-04-02T15:25:24.615Z,3.40
2023-04-02T15:28:03.686Z,5.80
2023-04-02T15:30:36.987Z,5.00
2023-04-02T15:33:38.341Z,3.23
2023-04-02T15:36:43.161Z,1.90
2023-04-02T15:39:38.847Z,1.97
2023-04-02T15:42:17.364Z,1.60
2023-04-02T15:44:56.384Z,1.30
2023-04-02T15:47:32.322Z,2.40
2023-04-02T15:50:13.078Z,1.50
2023-04-02T15:52:51.596Z,1.60
2023-04-02T15:55:25.837Z,1.40
2023-04-02T15:58:18.518Z,1.53
2023-04-02T16:00:51.735Z,1.00
2023-04-02T16:03:49.174Z,1.80
2023-04-02T16:06:31.668Z,2.10
2023-04-02T16:09:17.680Z,3.20
2023-04-02T16:11:45.762Z,2.07
2023-04-02T16:14:25.019Z,4.33
2023-04-02T16:16:56.011Z,2.27
2023-04-02T16:19:29.268Z,2.27
2023-04-02T16:22:02.796Z,3.50
2023-04-02T16:24:30.384Z,3.30
2023-04-02T16:27:08.191Z,2.60
2023-04-02T16:30:08.283Z,2.57
2023-04-02T16:32:51.184Z,1.90
2023-04-02T16:35:42.781Z,1.30
2023-04-02T16:38:21.039Z,2.10
2023-04-02T16:41:06.806Z,2.17
2023-04-02T16:43:48.818Z,1.70
2023-04-02T16:46:38.191Z,2.27
2023-04-02T16:49:15.526Z,2.30
2023-04-02T16:51:50.564Z,2.17
2023-04-02T16:54:25.055Z,3.03
2023-04-02T16:57:09.835Z,1.47
2023-04-02T16:59:44.872Z,1.90
2023-04-02T17:02:24.735Z,2.10
2023-04-02T17:05:02.786Z,2.60
2023-04-02T17:07:35.763Z,1.83
2023-04-02T17:10:24.319Z,1.80
2023-04-02T17:12:59.491Z,3.90
2023-04-02T17:15:33.061Z,3.77
2023-04-02T17:18:08.432Z,3.80
2023-04-02T17:20:36.097Z,4.70
2023-04-02T17:23:05.351Z,3.80
2023-04-02T17:25:37.087Z,3.87
2023-04-02T17:28:12.357Z,3.60
2023-04-02T17:30:43.433Z,3.90
2023-04-02T17:33:12.526Z,3.13
2023-04-02T17:35:49.257Z,2.73
2023-04-02T17:38:25.249Z,2.43
2023-04-02T17:41:00.234Z,2.80
2023-04-02T17:43:42.389Z,3.20
2023-04-02T17:46:20.413Z,2.10
2023-04-02T17:48:54.228Z,3.10
2023-04-02T17:51:31.094Z,2.53
2023-04-02T17:54:10.612Z,3.57
2023-04-02T17:56:54.388Z,4.03
2023-04-02T17:59:40.906Z,4.07
2023-04-02T18:02:25.619Z,3.67
2023-04-02T18:05:00.002Z,5.30
2023-04-02T18:07:36.806Z,5.20
2023-04-02T18:10:17.410Z,5.30
2023-04-02T18:12:56.384Z,6.27
2023-04-02T18:15:48.305Z,6.13
2023-04-02T18:18:30.313Z,5.97
2023-04-02T18:21:10.804Z,4.03
2023-04-02T18:23:53.651Z,4.00
2023-04-02T18:26:32.711Z,4.40
2023-04-02T18:29:08.254Z,4.17
2023-04-02T18:31:44.641Z,4.83
2023-04-02T18:34:44.323Z,4.00
2023-04-02T18:37:28.503Z,2.97
2023-04-02T18:40:19.522Z,2.70
2023-04-02T18:43:00.730Z,2.67
2023-04-02T18:45:40.080Z,3.00
2023-04-02T18:48:21.812Z,3.97
2023-04-02T18:50:50.262Z,2.50
2023-04-02T18:53:21.552Z,2.83
2023-04-02T18:55:53.905Z,2.77
2023-04-02T18:58:25.758Z,4.70
2023-04-02T19:00:53.842Z,3.80
2023-04-02T19:03:27.906Z,2.57
2023-04-02T19:06:01.474Z,3.70
2023-04-02T19:08:32.576Z,2.50
2023-04-02T19:11:01.653Z,2.70
2023-04-02T19:13:29.240Z,2.27
2023-04-02T19:16:09.279Z,2.60
2023-04-02T19:18:49.828Z,2.57
2023-04-02T19:21:27.216Z,4.20
2023-04-02T19:24:07.161Z,2.90
2023-04-02T19:26:41.523Z,2.90
2023-04-02T19:29:23.227Z,2.27
2023-04-02T19:31:55.125Z,2.27
2023-04-02T19:34:28.190Z,2.53
2023-04-02T19:37:02.483Z,2.53
2023-04-02T19:40:02.529Z,1.77
2023-04-02T19:42:45.933Z,1.50
2023-04-02T19:45:33.841Z,2.53
2023-04-02T19:48:10.716Z,1.80
2023-04-02T19:50:38.568Z,2.13
2023-04-02T19:53:07.233Z,1.70
2023-04-02T19:55:35.212Z,2.20
2023-04-02T19:58:17.325Z,2.10
2023-04-02T20:00:47.098Z,1.53
2023-04-02T20:03:14.582Z,2.10
2023-04-02T20:05:41.978Z,1.70
2023-04-02T20:08:11.678Z,1.67
2023-04-02T20:10:39.415Z,2.10
2023-04-02T20:13:06.752Z,2.00
2023-04-02T20:19:15.149Z,1.90
2023-04-02T20:21:42.468Z,3.27
2023-04-02T20:24:10.461Z,3.40
2023-04-02T20:26:37.788Z,2.60
2023-04-02T20:29:05.194Z,2.10
2023-04-02T20:31:33.654Z,1.80
2023-04-02T20:34:04.245Z,1.87
2023-04-02T20:36:32.103Z,2.40
2023-04-02T20:38:59.389Z,2.67
2023-04-02T20:41:27.562Z,1.67
2023-04-02T20:43:55.010Z,1.53
2023-04-02T20:46:22.508Z,1.90
2023-04-02T20:48:49.894Z,1.40
2023-04-02T20:51:17.236Z,1.50
2023-04-02T20:53:45.493Z,2.47
2023-04-02T20:56:15.272Z,1.00
2023-04-02T20:58:43.808Z,1.20
2023-04-02T21:01:14.898Z,1.23
2023-04-02T21:03:42.318Z,1.17
2023-04-02T21:06:13.942Z,1.37
2023-04-02T21:08:41.450Z,1.53
2023-04-02T21:11:10.109Z,1.20
2023-04-02T21:13:37.782Z,1.13
2023-04-02T21:16:14.266Z,1.07
2023-04-02T21:18:41.691Z,1.00
2023-04-02T21:21:12.618Z,2.20
2023-04-02T21:23:41.035Z,1.30
2023-04-02T21:26:10.984Z,2.37
2023-04-02T21:28:38.394Z,1.50
2023-04-02T21:31:10.049Z,1.30
2023-04-02T21:33:39.075Z,1.67
2023-04-02T21:36:07.852Z,1.20
2023-04-02T21:38:35.875Z,1.33
2023-04-02T21:41:13.940Z,1.60
2023-04-02T21:43:41.441Z,1.40
2023-04-02T21:46:09.734Z,1.00
2023-04-02T21:48:37.096Z,1.30
2023-04-02T21:51:09.822Z,1.40
2023-04-02T21:53:37.207Z,1.37
2023-04-02T21:56:05.924Z,1.70
2023-04-02T21:58:33.260Z,1.40
2023-04-02T22:01:00.663Z,1.50
2023-04-02T22:03:32.050Z,1.20
2023-04-02T22:06:04.046Z,2.10
2023-04-02T22:08:31.420Z,0.80
2023-04-02T22:11:03.931Z,0.60
2023-04-02T22:13:31.258Z,1.73
2023-04-02T22:16:01.581Z,1.07
2023-04-02T22:18:29.594Z,1.13
2023-04-02T22:20:57.776Z,1.30
2023-04-02T22:23:25.853Z,1.30
2023-04-02T22:25:54.135Z,1.07
2023-04-02T22:28:22.003Z,1.43
2023-04-02T22:30:49.681Z,1.17
2023-04-02T22:33:17.388Z,1.30
2023-04-02T22:35:48.659Z,1.17
2023-04-02T22:38:16.000Z,1.50
2023-04-02T22:40:43.291Z,0.80
2023-04-02T22:43:10.709Z,0.80
2023-04-02T22:45:38.090Z,1.60
2023-04-02T22:48:05.603Z,1.30
2023-04-02T22:50:32.919Z,1.20
2023-04-02T22:53:01.078Z,1.20
2023-04-02T22:55:28.591Z,1.37
2023-04-02T22:57:55.900Z,1.70
2023-04-02T23:00:23.532Z,1.47
2023-04-02T23:02:50.954Z,0.90
2023-04-02T23:05:18.362Z,1.50
2023-04-02T23:07:45.727Z,1.57
2023-04-02T23:10:13.726Z,1.00
2023-04-02T23:12:41.080Z,1.30
2023-04-02T23:15:09.614Z,1.50
2023-04-02T23:17:37.158Z,2.03
2023-04-02T23:20:05.334Z,1.20
2023-04-02T23:22:32.845Z,0.87
2023-04-02T23:25:00.238Z,1.37
2023-04-02T23:27:28.201Z,1.80
2023-04-02T23:29:55.479Z,1.93
2023-04-02T23:32:22.949Z,2.23
2023-04-02T23:34:50.328Z,1.73
2023-04-02T23:37:17.599Z,1.53
2023-04-02T23:39:45.140Z,1.70
2023-04-02T23:42:12.491Z,1.10
2023-04-02T23:44:40.534Z,1.43
2023-04-02T23:47:08.533Z,1.80
2023-04-02T23:49:35.897Z,1.17
2023-04-02T23:52:03.295Z,2.47
2023-04-02T23:54:30.624Z,1.63
2023-04-02T23:56:58.006Z,1.80
2023-04-02T23:59:25.374Z,1.60
